createdAt,value
2022-12-22T00:00:32.566Z,7.40
2022-12-22T00:03:32.629Z,8.75
2022-12-22T00:06:28.191Z,8.15
2022-12-22T00:09:18.965Z,7.90
2022-12-22T00:12:09.937Z,5.93
2022-12-22T00:15:02.066Z,6.07
2022-12-22T00:17:52.771Z,5.95
2022-12-22T00:20:43.902Z,6.80
2022-12-22T00:23:34.549Z,6.03
2022-12-22T00:26:27.205Z,6.70
2022-12-22T00:29:17.833Z,5.90
2022-12-22T00:32:09.012Z,4.57
2022-12-22T00:35:01.630Z,9.05
2022-12-22T00:37:55.608Z,4.95
2022-12-22T00:40:47.702Z,6.82
2022-12-22T00:43:38.357Z,5.60
2022-12-22T00:46:32.078Z,5.05
2022-12-22T00:49:23.104Z,5.93
2022-12-22T00:52:13.702Z,4.85
2022-12-22T00:55:04.149Z,6.60
2022-12-22T00:57:54.769Z,9.43
2022-12-22T01:00:45.652Z,6.22
2022-12-22T01:03:37.024Z,5.72
2022-12-22T01:06:28.827Z,5.35
2022-12-22T01:09:20.006Z,5.65
2022-12-22T01:12:10.564Z,13.70
2022-12-22T01:15:01.038Z,5.15
2022-12-22T01:17:51.424Z,6.10
2022-12-22T01:20:42.031Z,5.00
2022-12-22T01:23:33.108Z,7.25
2022-12-22T01:26:28.173Z,5.00
2022-12-22T01:29:18.722Z,6.38
2022-12-22T01:32:09.179Z,3.38
2022-12-22T01:35:00.499Z,7.10
2022-12-22T01:37:51.349Z,6.35
2022-12-22T01:40:44.495Z,6.05
2022-12-22T01:43:46.187Z,5.00
2022-12-22T01:46:47.261Z,5.25
2022-12-22T01:49:43.369Z,5.65
2022-12-22T01:52:38.017Z,4.05
2022-12-22T01:55:32.736Z,4.47
2022-12-22T01:58:26.903Z,4.63
2022-12-22T02:04:09.170Z,4.68
2022-12-22T02:07:01.687Z,4.15
2022-12-22T02:09:58.402Z,4.63
2022-12-22T02:13:10.766Z,4.07
2022-12-22T02:16:12.099Z,4.05
2022-12-22T02:19:13.139Z,6.72
2022-12-22T02:22:15.751Z,4.20
2022-12-22T02:25:12.777Z,5.35
2022-12-22T02:28:05.690Z,3.88
2022-12-22T02:30:57.223Z,4.13
2022-12-22T02:33:48.385Z,3.45
2022-12-22T02:36:44.810Z,3.70
2022-12-22T02:39:51.196Z,4.38
2022-12-22T02:43:00.044Z,3.72
2022-12-22T02:46:16.803Z,3.47
2022-12-22T02:49:15.597Z,3.17
2022-12-22T02:52:12.402Z,2.65
2022-12-22T02:55:04.223Z,2.67
2022-12-22T02:57:55.260Z,3.95
2022-12-22T03:00:46.555Z,3.92
2022-12-22T03:03:37.639Z,3.22
2022-12-22T03:06:28.375Z,1.92
2022-12-22T03:09:19.034Z,2.78
2022-12-22T03:12:10.308Z,2.17
2022-12-22T03:15:00.852Z,2.15
2022-12-22T03:17:51.782Z,4.70
2022-12-22T03:20:42.530Z,2.60
2022-12-22T03:23:33.385Z,2.53
2022-12-22T03:26:05.824Z,2.95
2022-12-22T03:28:37.895Z,1.60
2022-12-22T03:31:09.984Z,2.53
2022-12-22T03:33:42.016Z,1.95
2022-12-22T03:36:14.091Z,2.08
2022-12-22T03:38:46.071Z,1.30
2022-12-22T03:41:37.117Z,1.80
2022-12-22T03:44:28.026Z,2.05
2022-12-22T03:47:00.118Z,2.67
2022-12-22T03:49:32.401Z,2.55
2022-12-22T03:52:04.595Z,3.35
2022-12-22T03:54:36.636Z,2.38
2022-12-22T03:57:08.943Z,2.28
2022-12-22T03:59:40.889Z,5.13
2022-12-22T04:02:13.008Z,5.03
2022-12-22T04:04:45.099Z,2.35
2022-12-22T04:07:17.572Z,2.33
2022-12-22T04:10:08.341Z,2.40
2022-12-22T04:12:55.609Z,7.47
2022-12-22T04:15:30.270Z,3.10
2022-12-22T04:18:02.441Z,2.95
2022-12-22T04:20:34.805Z,2.35
2022-12-22T04:23:07.014Z,2.55
2022-12-22T04:25:39.201Z,4.00
2022-12-22T04:28:11.945Z,4.82
2022-12-22T04:31:10.347Z,4.18
2022-12-22T04:33:42.578Z,3.35
2022-12-22T04:36:14.832Z,3.83
2022-12-22T04:38:47.066Z,4.07
2022-12-22T04:41:19.177Z,2.95
2022-12-22T04:43:51.425Z,2.67
2022-12-22T04:46:23.519Z,5.40
2022-12-22T04:48:59.941Z,5.60
2022-12-22T04:51:32.661Z,3.97
2022-12-22T04:54:04.697Z,5.88
2022-12-22T04:56:36.769Z,4.22
2022-12-22T04:59:09.367Z,5.72
2022-12-22T05:01:41.555Z,3.75
2022-12-22T05:04:17.374Z,12.32
2022-12-22T05:06:52.193Z,31.17
2022-12-22T05:09:24.454Z,10.93
2022-12-22T05:11:56.761Z,6.03
2022-12-22T05:14:28.819Z,5.72
2022-12-22T05:17:00.934Z,7.65
2022-12-22T05:19:33.013Z,9.48
2022-12-22T05:22:05.075Z,8.00
2022-12-22T05:24:37.123Z,13.52
2022-12-22T05:27:11.355Z,14.27
2022-12-22T05:29:43.478Z,16.10
2022-12-22T05:32:15.521Z,11.27
2022-12-22T05:34:47.609Z,12.88
2022-12-22T05:37:20.024Z,8.90
2022-12-22T05:39:52.080Z,9.55
2022-12-22T05:42:36.398Z,6.90
2022-12-22T05:45:12.508Z,4.30
2022-12-22T05:47:47.167Z,7.15
2022-12-22T05:50:24.939Z,6.93
2022-12-22T05:53:05.659Z,5.82
2022-12-22T05:55:37.958Z,3.95
2022-12-22T05:58:09.979Z,8.10
2022-12-22T06:00:42.107Z,10.15
2022-12-22T06:03:14.373Z,7.90
2022-12-22T06:05:50.076Z,5.65
2022-12-22T06:08:23.240Z,5.93
2022-12-22T06:10:57.392Z,12.75
2022-12-22T06:13:29.904Z,3.90
2022-12-22T06:16:02.223Z,8.45
2022-12-22T06:18:34.342Z,5.50
2022-12-22T06:21:06.743Z,5.63
2022-12-22T06:27:50.455Z,10.00
2022-12-22T06:30:29.182Z,8.18
2022-12-22T06:33:05.404Z,3.80
2022-12-22T06:35:37.588Z,7.65
2022-12-22T06:38:09.613Z,11.52
2022-12-22T06:40:41.733Z,9.00
2022-12-22T06:43:13.821Z,8.00
2022-12-22T06:45:46.203Z,5.88
2022-12-22T06:48:19.177Z,5.90
2022-12-22T06:50:51.242Z,5.05
2022-12-22T06:53:24.072Z,6.47
2022-12-22T06:55:56.038Z,4.82
2022-12-22T06:58:28.063Z,2.65
2022-12-22T07:01:00.057Z,4.15
2022-12-22T07:03:32.142Z,17.40
2022-12-22T07:06:04.436Z,2.22
2022-12-22T07:08:36.456Z,3.05
2022-12-22T07:11:08.427Z,5.40
2022-12-22T07:13:41.454Z,4.97
2022-12-22T07:16:13.569Z,4.65
2022-12-22T07:18:45.585Z,2.50
2022-12-22T07:21:17.645Z,5.97
2022-12-22T07:23:49.661Z,1.90
2022-12-22T07:26:21.735Z,4.03
2022-12-22T07:28:53.760Z,4.70
2022-12-22T07:31:25.864Z,2.10
2022-12-22T07:33:58.177Z,4.50
2022-12-22T07:36:30.183Z,6.65
2022-12-22T07:39:02.725Z,2.35
2022-12-22T07:41:53.349Z,11.60
2022-12-22T07:44:25.562Z,2.70
2022-12-22T07:46:57.606Z,2.65
2022-12-22T07:49:48.180Z,5.30
2022-12-22T07:52:20.165Z,2.15
2022-12-22T07:54:52.175Z,3.42
2022-12-22T07:57:26.402Z,13.15
2022-12-22T07:59:58.464Z,9.10
2022-12-22T08:02:36.870Z,11.93
2022-12-22T08:05:11.107Z,10.95
2022-12-22T08:07:43.365Z,4.05
2022-12-22T08:10:17.744Z,3.92
2022-12-22T08:12:49.748Z,3.40
2022-12-22T08:15:21.757Z,4.13
2022-12-22T08:17:53.909Z,6.10
2022-12-22T08:20:26.103Z,6.07
2022-12-22T08:22:58.309Z,7.05
2022-12-22T08:25:32.110Z,2.78
2022-12-22T08:28:04.282Z,4.07
2022-12-22T08:30:36.459Z,3.25
2022-12-22T08:33:08.643Z,4.60
2022-12-22T08:35:40.840Z,3.47
2022-12-22T08:38:14.195Z,5.32
2022-12-22T08:40:47.678Z,8.50
2022-12-22T08:43:21.949Z,2.00
2022-12-22T08:45:53.976Z,5.78
2022-12-22T08:48:25.975Z,3.10
2022-12-22T08:50:57.984Z,5.95
2022-12-22T08:54:03.111Z,6.82
2022-12-22T08:56:21.944Z,4.05
2022-12-22T08:58:54.506Z,3.15
2022-12-22T09:01:26.708Z,9.13
2022-12-22T20:10:24.972Z,8.98
2022-12-22T20:13:02.018Z,10.07
2022-12-22T20:15:37.557Z,7.20
2022-12-22T20:18:20.913Z,8.02
2022-12-22T20:21:01.362Z,5.40
2022-12-22T20:23:37.766Z,9.25
2022-12-22T20:26:15.959Z,7.28
2022-12-22T20:28:49.891Z,8.48
2022-12-22T20:31:24.280Z,9.90
2022-12-22T20:33:56.477Z,5.57
2022-12-22T20:36:31.957Z,7.47
2022-12-22T20:39:12.281Z,7.78
2022-12-22T20:41:50.528Z,6.20
2022-12-22T20:44:24.935Z,4.95
2022-12-22T20:46:57.121Z,6.32
2022-12-22T20:49:29.237Z,15.15
2022-12-22T20:52:01.303Z,11.82
2022-12-22T20:54:33.503Z,16.92
2022-12-22T20:57:06.188Z,14.48
2022-12-22T20:59:38.271Z,14.33
2022-12-22T21:02:23.575Z,17.55
2022-12-22T21:04:56.292Z,15.90
2022-12-22T21:07:29.012Z,15.68
2022-12-22T21:10:01.338Z,4.30
2022-12-22T21:12:33.563Z,6.47
2022-12-22T21:15:06.064Z,13.68
2022-12-22T21:17:42.059Z,10.70
2022-12-22T21:20:27.175Z,21.65
2022-12-22T21:22:59.445Z,49.20
2022-12-22T21:25:31.777Z,25.25
2022-12-22T21:28:07.709Z,12.93
2022-12-22T21:30:39.800Z,13.48
2022-12-22T21:33:11.890Z,24.17
2022-12-22T21:35:44.174Z,11.93
2022-12-22T21:38:21.983Z,20.85
2022-12-22T21:40:54.574Z,16.52
